Time;durP1;ratioP1;P1;durP2;ratioP2;P2;SDS_P1;SDS_P2;PMS_P1;PMS_P2;Temp;Humidity;BMP_temperature;BMP_pressure;BME280_temperature;BME280_humidity;BME280_pressure;Samples;Min_cycle;Max_cycle;Signal;HPM_P1;HPM_P2
2021/03/09 00:00:21;;;;;;;8.00;7.13;;;;;;;1.06;74.08;96885.63;5016597;28;20202;-65
2021/03/09 00:02:46;;;;;;;9.20;7.30;;;;;;;1.14;73.46;96881.22;5030041;28;20171;-66
2021/03/09 00:05:12;;;;;;;9.20;7.63;;;;;;;1.20;73.66;96878.00;5036866;28;20243;-66
2021/03/09 00:07:40;;;;;;;8.07;7.27;;;;;;;1.19;73.54;96881.53;5018055;28;20195;-66
2021/03/09 00:10:06;;;;;;;10.97;7.17;;;;;;;1.09;73.53;96882.69;5040982;28;20290;-66
2021/03/09 00:12:31;;;;;;;8.20;7.13;;;;;;;0.91;74.12;96877.72;5029934;28;20172;-66
2021/03/09 00:14:57;;;;;;;9.70;7.43;;;;;;;0.80;74.95;96878.88;5037753;28;20699;-66
2021/03/09 00:17:22;;;;;;;11.27;8.10;;;;;;;0.88;74.67;96882.41;5019807;28;20270;-66
2021/03/09 00:19:48;;;;;;;9.90;8.13;;;;;;;0.91;75.43;96879.50;5044954;28;20206;-66
2021/03/09 00:22:14;;;;;;;14.37;8.20;;;;;;;0.96;74.53;96872.06;5030432;28;20185;-66
2021/03/09 00:24:39;;;;;;;9.80;7.80;;;;;;;1.00;74.93;96875.94;5044758;28;20243;-65
2021/03/09 00:27:09;;;;;;;12.07;8.70;;;;;;;0.92;74.83;96875.94;5014586;28;20186;-66
2021/03/09 00:29:38;;;;;;;13.27;9.10;;;;;;;0.81;75.39;96888.22;5031742;28;21013;-66
2021/03/09 00:32:07;;;;;;;12.47;8.90;;;;;;;0.69;76.05;96873.25;5038846;28;20178;-66
2021/03/09 00:34:33;;;;;;;13.00;9.70;;;;;;;0.82;76.01;96871.78;5017621;28;20179;-66
2021/03/09 00:36:59;;;;;;;13.93;9.90;;;;;;;0.87;75.82;96873.06;5029292;28;20206;-67
2021/03/09 00:39:24;;;;;;;12.77;9.90;;;;;;;0.82;75.78;96866.63;5039307;28;20289;-66
2021/03/09 00:41:50;;;;;;;12.07;10.10;;;;;;;0.76;75.99;96866.47;5018460;28;20183;-66
2021/03/09 00:44:16;;;;;;;16.30;10.77;;;;;;;0.72;76.34;96865.19;5042099;28;20172;-66
2021/03/09 00:46:41;;;;;;;13.53;9.07;;;;;;;0.68;76.29;96856.94;5019585;28;20216;-66
2021/03/09 00:49:07;;;;;;;15.30;10.10;;;;;;;0.56;77.31;96855.66;5033692;28;20675;-66
2021/03/09 00:51:32;;;;;;;13.60;10.07;;;;;;;0.51;77.75;96857.94;5029195;28;20178;-66
2021/03/09 00:53:58;;;;;;;12.37;10.07;;;;;;;0.56;77.18;96858.25;5037537;28;20180;-66
2021/03/09 00:56:23;;;;;;;15.87;10.47;;;;;;;0.52;78.04;96869.06;5026855;28;20200;-65
2021/03/09 00:58:48;;;;;;;15.10;10.33;;;;;;;0.51;77.79;96863.09;4998514;28;20235;-66
2021/03/09 01:01:14;;;;;;;17.80;10.07;;;;;;;0.58;77.64;96858.91;5044754;28;20186;-66
2021/03/09 01:03:39;;;;;;;14.77;9.90;;;;;;;0.57;77.90;96854.72;5011732;28;20637;-66
2021/03/09 01:06:05;;;;;;;13.37;9.17;;;;;;;0.49;77.88;96859.88;5025285;28;20253;-66
2021/03/09 01:08:30;;;;;;;13.53;9.97;;;;;;;0.45;78.35;96860.38;5013114;28;20207;-65
2021/03/09 01:10:56;;;;;;;14.93;10.07;;;;;;;0.44;78.45;96854.41;5023316;28;20173;-65
2021/03/09 01:13:21;;;;;;;13.80;10.13;;;;;;;0.51;78.37;96851.97;5031542;28;20180;-65
2021/03/09 01:15:47;;;;;;;15.13;10.43;;;;;;;0.26;79.22;96854.56;5036744;28;20539;-65
2021/03/09 01:18:12;;;;;;;14.23;10.50;;;;;;;0.09;80.12;96855.50;5019304;28;20215;-65
2021/03/09 01:20:38;;;;;;;14.77;10.63;;;;;;;0.16;80.18;96851.34;5043175;28;20164;-65
2021/03/09 01:23:03;;;;;;;14.97;10.83;;;;;;;0.18;79.72;96851.97;5024088;28;20170;-66
2021/03/09 01:25:28;;;;;;;16.47;11.80;;;;;;;0.23;80.16;96846.34;5030328;28;20256;-65
2021/03/09 01:27:54;;;;;;;17.47;11.33;;;;;;;0.15;80.51;96843.75;5024891;28;20198;-65
2021/03/09 01:30:20;;;;;;;14.70;11.07;;;;;;;0.12;80.58;96841.50;5043398;28;20225;-65
2021/03/09 01:32:46;;;;;;;15.43;10.07;;;;;;;0.13;80.50;96838.75;5014403;28;20885;-65
2021/03/09 01:35:12;;;;;;;15.97;10.97;;;;;;;0.22;80.29;96842.97;5031909;28;20174;-66
2021/03/09 01:37:37;;;;;;;16.27;10.57;;;;;;;0.19;80.15;96839.91;5031128;28;20178;-65
2021/03/09 01:40:06;;;;;;;15.67;10.43;;;;;;;0.20;80.37;96831.19;5017766;28;20203;-65
2021/03/09 01:42:31;;;;;;;15.60;11.13;;;;;;;0.23;80.24;96833.44;5040916;28;20174;-66
2021/03/09 01:44:57;;;;;;;13.03;9.77;;;;;;;0.10;80.88;96830.56;5029785;28;20179;-65
2021/03/09 01:47:22;;;;;;;15.47;10.57;;;;;;;0.09;80.63;96823.78;5034416;28;20193;-65
2021/03/09 01:49:48;;;;;;;15.47;10.73;;;;;;;0.20;80.06;96816.53;5024990;28;20565;-66
2021/03/09 01:52:14;;;;;;;16.90;10.77;;;;;;;0.12;80.85;96820.88;5047752;28;20186;-65
2021/03/09 01:54:40;;;;;;;17.40;10.50;;;;;;;0.00;81.43;96815.25;5043106;28;20177;-65
2021/03/09 01:57:07;;;;;;;16.03;10.90;;;;;;;0.14;80.99;96814.63;5019762;28;20187;-66
2021/03/09 01:59:36;;;;;;;13.30;10.30;;;;;;;0.06;80.85;96808.66;5028335;28;20206;-65
2021/03/09 02:02:02;;;;;;;15.10;10.43;;;;;;;0.04;81.24;96802.84;5036299;28;20179;-64
2021/03/09 02:04:27;;;;;;;13.47;10.23;;;;;;;0.01;81.50;96793.66;5039557;28;20178;-65
2021/03/09 02:06:53;;;;;;;12.47;9.77;;;;;;;0.07;81.53;96803.31;5022502;28;20179;-65
2021/03/09 02:09:20;;;;;;;15.30;10.83;;;;;;;0.19;81.14;96801.25;5047361;28;20220;-65
2021/03/09 02:11:59;;;;;;;15.70;10.93;;;;;;;0.32;80.47;96796.41;5027746;28;20198;-65
2021/03/09 02:14:34;;;;;;;10.90;9.20;;;;;;;0.21;80.78;96796.75;5029383;28;20183;-65
2021/03/09 02:17:11;;;;;;;13.50;9.77;;;;;;;0.24;80.90;96789.47;5044665;28;20177;-65
2021/03/09 02:20:01;;;;;;;12.20;9.70;;;;;;;0.25;80.42;96790.28;5049371;28;20194;-65
2021/03/09 02:22:35;;;;;;;14.90;9.73;;;;;;;0.28;80.36;96783.03;5015525;28;20532;-65
2021/03/09 02:25:26;;;;;;;13.30;9.60;;;;;;;0.30;80.34;96788.03;5040847;28;20227;-65
2021/03/09 02:28:15;;;;;;;15.40;10.13;;;;;;;0.23;80.58;96789.63;5024941;28;20185;-65
2021/03/09 02:30:43;;;;;;;12.30;9.70;;;;;;;0.05;81.61;96792.41;5031162;28;20188;-65
2021/03/09 02:33:23;;;;;;;14.23;10.07;;;;;;;0.19;81.03;96784.00;5044732;28;20177;-65
2021/03/09 02:36:05;;;;;;;12.07;9.40;;;;;;;0.16;81.23;96779.19;5015076;28;20183;-65
2021/03/09 02:38:45;;;;;;;12.77;9.40;;;;;;;0.15;80.70;96777.56;5016273;28;20207;-65
2021/03/09 02:41:12;;;;;;;12.53;9.20;;;;;;;0.31;80.57;96777.56;5044415;28;20200;-65
2021/03/09 02:43:41;;;;;;;16.53;10.30;;;;;;;0.15;80.44;96771.63;5019849;28;20193;-65
2021/03/09 02:46:08;;;;;;;11.83;8.90;;;;;;;0.14;80.85;96773.38;5039303;28;20183;-65
2021/03/09 02:48:35;;;;;;;12.30;9.37;;;;;;;0.15;80.94;96774.19;5037376;28;20263;-65
2021/03/09 02:51:02;;;;;;;15.50;9.20;;;;;;;0.19;80.75;96778.06;5032957;28;20184;-65
2021/03/09 02:53:31;;;;;;;12.73;8.77;;;;;;;0.30;80.20;96782.88;5047187;28;20185;-65
2021/03/09 02:55:59;;;;;;;10.93;8.83;;;;;;;0.20;80.59;96774.50;5014286;28;20206;-66
2021/03/09 02:58:25;;;;;;;13.00;9.27;;;;;;;0.24;80.51;96773.22;5012193;28;20606;-65
2021/03/09 03:00:52;;;;;;;11.83;9.10;;;;;;;0.15;80.77;96769.84;5034584;28;20192;-65
2021/03/09 03:03:18;;;;;;;13.20;9.57;;;;;;;0.22;80.51;96772.59;5020211;28;21008;-65
2021/03/09 03:05:44;;;;;;;15.83;9.67;;;;;;;0.24;80.81;96765.47;5023398;28;20229;-65
2021/03/09 03:08:12;;;;;;;12.13;9.30;;;;;;;0.22;80.76;96765.66;5026310;28;20694;-65
2021/03/09 03:10:42;;;;;;;11.63;8.90;;;;;;;0.15;80.89;96762.13;5024101;28;20203;-65
2021/03/09 03:13:10;;;;;;;13.23;8.87;;;;;;;0.08;80.80;96766.31;5018555;28;20262;-65
2021/03/09 03:15:37;;;;;;;10.93;8.33;;;;;;;0.23;80.57;96756.13;5034492;28;20227;-65
2021/03/09 03:18:09;;;;;;;12.40;8.67;;;;;;;0.06;80.56;96760.50;5035216;28;20269;-65
2021/03/09 03:20:36;;;;;;;12.70;8.77;;;;;;;0.06;80.97;96762.28;5039327;28;20169;-64
2021/03/09 03:23:03;;;;;;;11.43;9.07;;;;;;;0.05;80.82;96760.69;5019782;28;20175;-65
2021/03/09 03:25:29;;;;;;;11.17;9.03;;;;;;;0.02;80.94;96756.63;5010876;28;20176;-65
2021/03/09 03:27:56;;;;;;;11.77;9.20;;;;;;;-0.02;81.42;96757.94;5028690;28;20594;-65
2021/03/09 03:30:28;;;;;;;12.70;8.93;;;;;;;-0.04;81.47;96760.66;5013905;28;20246;-65
2021/03/09 03:32:54;;;;;;;11.20;8.80;;;;;;;0.13;81.05;96769.19;5029151;28;20356;-65
2021/03/09 03:35:20;;;;;;;11.87;8.93;;;;;;;0.11;80.76;96768.56;5030575;28;20258;-65
2021/03/09 03:37:45;;;;;;;9.53;8.50;;;;;;;0.10;81.03;96761.81;5041754;28;20228;-65
2021/03/09 03:40:16;;;;;;;11.10;9.20;;;;;;;0.04;80.99;96761.63;5016755;28;20210;-66
2021/03/09 03:42:43;;;;;;;12.07;8.97;;;;;;;0.02;81.11;96759.22;5023720;28;20169;-65
2021/03/09 03:45:11;;;;;;;11.37;8.90;;;;;;;0.17;80.98;96762.75;5033629;28;20183;-66
2021/03/09 03:47:37;;;;;;;12.17;9.63;;;;;;;0.19;80.80;96755.66;5038269;28;20240;-65
2021/03/09 03:50:05;;;;;;;12.90;9.50;;;;;;;0.23;80.91;96759.50;5019460;28;20264;-66
2021/03/09 03:52:40;;;;;;;15.57;10.53;;;;;;;0.21;80.79;96758.91;5027255;28;20169;-66
2021/03/09 03:55:18;;;;;;;14.43;10.53;;;;;;;0.20;81.24;96756.47;5035198;28;20178;-67
2021/03/09 03:57:47;;;;;;;13.20;9.47;;;;;;;0.10;81.68;96761.00;5024386;28;20857;-66
2021/03/09 04:00:17;;;;;;;10.90;8.97;;;;;;;0.06;81.75;96752.75;5011280;28;20190;-66
2021/03/09 04:02:45;;;;;;;13.70;9.70;;;;;;;0.10;81.67;96756.66;5017256;28;20395;-66
2021/03/09 04:05:11;;;;;;;15.43;10.60;;;;;;;-0.02;82.13;96757.94;5037611;28;20217;-66
2021/03/09 04:07:39;;;;;;;14.63;10.90;;;;;;;0.00;82.23;96751.63;5019566;28;20171;-65
2021/03/09 04:10:06;;;;;;;14.40;10.40;;;;;;;0.11;81.55;96754.88;5044296;28;20238;-66
2021/03/09 04:12:33;;;;;;;13.27;10.40;;;;;;;0.07;81.74;96749.22;5024545;28;20166;-65
2021/03/09 04:14:59;;;;;;;15.90;9.90;;;;;;;-0.13;82.53;96751.34;5032203;28;20270;-65
2021/03/09 04:17:26;;;;;;;15.63;9.80;;;;;;;-0.03;82.93;96743.44;5014895;28;20270;-66
2021/03/09 04:19:55;;;;;;;13.93;10.53;;;;;;;-0.07;82.49;96744.75;5014354;28;20199;-65
2021/03/09 04:22:23;;;;;;;15.37;9.70;;;;;;;0.05;82.48;96740.88;5042681;28;20190;-65
2021/03/09 04:24:50;;;;;;;16.00;10.33;;;;;;;-0.02;82.59;96745.06;5024356;28;20166;-65
2021/03/09 04:27:22;;;;;;;15.93;10.20;;;;;;;-0.15;82.21;96742.94;5018805;28;20187;-66
2021/03/09 04:29:58;;;;;;;17.50;10.07;;;;;;;-0.22;82.78;96736.03;5043239;28;20205;-66
2021/03/09 04:32:25;;;;;;;13.03;10.33;;;;;;;-0.29;83.82;96742.78;5012803;28;20167;-66
2021/03/09 04:34:51;;;;;;;16.63;10.47;;;;;;;-0.22;83.46;96738.59;5028023;28;20243;-65
2021/03/09 04:37:17;;;;;;;14.47;10.50;;;;;;;-0.30;83.72;96741.19;5041844;28;20178;-66
2021/03/09 04:39:44;;;;;;;15.13;9.90;;;;;;;-0.21;83.60;96748.75;5034157;28;20222;-66
2021/03/09 04:42:11;;;;;;;16.50;10.20;;;;;;;-0.21;83.42;96743.59;5036711;28;20499;-66
2021/03/09 04:44:37;;;;;;;15.03;10.80;;;;;;;-0.12;82.61;96749.56;5001709;28;20183;-65
2021/03/09 04:47:05;;;;;;;16.67;10.90;;;;;;;-0.18;83.02;96747.63;5040295;28;20171;-66
2021/03/09 04:49:32;;;;;;;16.30;11.00;;;;;;;-0.07;83.04;96750.69;5007315;28;20634;-66
2021/03/09 04:51:59;;;;;;;15.50;10.77;;;;;;;-0.16;82.78;96746.50;5025974;28;20540;-66
2021/03/09 04:54:25;;;;;;;16.90;10.93;;;;;;;-0.28;83.52;96750.34;4998086;28;20606;-65
2021/03/09 04:56:50;;;;;;;16.13;11.40;;;;;;;-0.21;83.33;96747.94;5034561;28;20178;-65
2021/03/09 04:59:16;;;;;;;13.30;9.83;;;;;;;-0.21;82.97;96743.59;5024265;28;20223;-66
2021/03/09 05:01:42;;;;;;;15.70;10.87;;;;;;;-0.26;83.40;96740.69;5027569;28;20174;-67
2021/03/09 05:04:08;;;;;;;15.70;10.13;;;;;;;-0.28;83.76;96739.25;5040397;28;20659;-66
2021/03/09 05:06:34;;;;;;;15.87;10.70;;;;;;;-0.29;83.30;96741.03;4999783;28;20198;-65
2021/03/09 05:09:00;;;;;;;12.30;9.70;;;;;;;-0.33;82.23;96744.06;5034036;28;20293;-65
2021/03/09 05:11:28;;;;;;;14.37;10.93;;;;;;;-0.31;82.22;96750.66;5018150;28;20198;-65
2021/03/09 05:13:57;;;;;;;13.13;10.50;;;;;;;-0.32;82.50;96746.47;5042665;28;20167;-65
2021/03/09 05:16:22;;;;;;;14.13;10.33;;;;;;;-0.31;82.01;96745.53;5027629;28;20227;-65
2021/03/09 05:18:49;;;;;;;16.03;10.67;;;;;;;-0.33;82.78;96751.78;5017937;28;20202;-66
2021/03/09 05:21:14;;;;;;;15.97;10.83;;;;;;;-0.36;82.12;96747.78;5022521;28;20375;-65
2021/03/09 05:23:40;;;;;;;14.87;10.83;;;;;;;-0.35;83.07;96751.16;5008417;28;20612;-66
2021/03/09 05:26:05;;;;;;;15.03;10.87;;;;;;;-0.42;83.86;96758.72;5048288;28;20694;-65
2021/03/09 05:28:31;;;;;;;15.40;11.33;;;;;;;-0.40;84.64;96754.22;5022705;28;20750;-65
2021/03/09 05:30:56;;;;;;;15.20;11.07;;;;;;;-0.29;84.03;96755.66;5042978;28;20669;-66
2021/03/09 05:33:21;;;;;;;16.53;11.20;;;;;;;-0.27;83.56;96759.69;5053171;28;20571;-65
2021/03/09 05:35:47;;;;;;;14.73;11.17;;;;;;;-0.32;83.16;96766.28;5042987;28;20224;-65
2021/03/09 05:38:12;;;;;;;15.40;11.03;;;;;;;-0.36;82.90;96759.84;5047069;28;20227;-66
2021/03/09 05:40:38;;;;;;;15.87;11.53;;;;;;;-0.34;82.62;96761.31;5021322;28;20206;-65
2021/03/09 05:43:05;;;;;;;15.73;10.83;;;;;;;-0.27;83.02;96761.44;5020529;28;20533;-66
2021/03/09 05:45:31;;;;;;;15.47;11.03;;;;;;;-0.34;83.23;96756.16;5027802;28;20248;-65
2021/03/09 05:47:58;;;;;;;15.87;10.57;;;;;;;-0.33;82.86;96759.50;5047735;28;20182;-65
2021/03/09 05:50:24;;;;;;;16.50;10.87;;;;;;;-0.32;82.25;96766.28;5015695;28;20221;-67
2021/03/09 05:52:49;;;;;;;14.17;10.30;;;;;;;-0.33;82.54;96769.81;5028153;28;20166;-65
2021/03/09 05:55:15;;;;;;;16.63;11.90;;;;;;;-0.35;82.29;96758.88;5036482;28;20188;-66
2021/03/09 05:57:41;;;;;;;15.17;10.80;;;;;;;-0.33;82.33;96762.09;5029721;28;20253;-66
2021/03/09 06:00:08;;;;;;;15.30;10.97;;;;;;;-0.31;82.42;96766.13;5051225;28;20212;-65
2021/03/09 06:02:35;;;;;;;15.97;11.33;;;;;;;-0.29;81.67;96773.69;5045937;28;20216;-66
2021/03/09 06:05:05;;;;;;;15.10;11.27;;;;;;;-0.26;81.75;96766.44;5021371;28;20543;-66
2021/03/09 06:07:32;;;;;;;14.67;10.97;;;;;;;-0.30;81.98;96766.94;5049137;28;20177;-69
2021/03/09 06:09:57;;;;;;;17.40;11.97;;;;;;;-0.23;81.34;96766.16;5027481;28;20202;-66
2021/03/09 06:12:25;;;;;;;16.57;11.73;;;;;;;-0.24;82.15;96769.69;5033288;28;20770;-65
2021/03/09 06:15:00;;;;;;;16.20;11.07;;;;;;;-0.20;82.27;96770.16;5039297;28;20249;-65
2021/03/09 06:17:32;;;;;;;15.17;11.17;;;;;;;-0.09;81.62;96764.69;5033586;28;20247;-66
2021/03/09 06:19:57;;;;;;;14.33;11.03;;;;;;;-0.02;81.55;96765.66;5030710;28;20206;-65
2021/03/09 06:22:43;;;;;;;16.83;11.17;;;;;;;0.04;81.67;96769.38;5030771;28;20171;-66
2021/03/09 06:25:17;;;;;;;19.90;12.67;;;;;;;0.12;81.14;96774.50;5031640;28;20172;-65
2021/03/09 06:27:43;;;;;;;16.67;12.40;;;;;;;-0.02;82.28;96770.81;5022900;28;20228;-63
2021/03/09 06:30:27;;;;;;;17.33;12.03;;;;;;;0.10;82.40;96772.09;5023374;28;20199;-66
2021/03/09 06:32:53;;;;;;;16.47;12.63;;;;;;;0.21;82.10;96768.41;5043119;28;20605;-66
2021/03/09 06:35:39;;;;;;;18.10;12.33;;;;;;;0.48;80.92;96768.03;5033985;28;20253;-66
2021/03/09 06:38:25;;;;;;;20.40;11.97;;;;;;;0.59;80.59;96772.03;5036273;28;20174;-65
2021/03/09 06:41:14;;;;;;;17.17;12.77;;;;;;;0.70;80.44;96769.13;5006802;28;20174;-65
2021/03/09 06:43:42;;;;;;;14.77;12.40;;;;;;;0.78;79.45;96775.03;5022037;28;20230;-65
2021/03/09 06:46:14;;;;;;;17.27;12.67;;;;;;;0.88;79.72;96772.28;5037475;28;20227;-66
2021/03/09 06:48:40;;;;;;;18.93;13.03;;;;;;;0.97;79.70;96770.47;5036099;28;20194;-65
2021/03/09 06:51:06;;;;;;;16.77;12.80;;;;;;;1.08;79.02;96776.06;5043281;28;20206;-66
2021/03/09 06:53:32;;;;;;;18.13;13.10;;;;;;;1.21;77.98;96766.03;5043831;28;20178;-64
2021/03/09 06:55:58;;;;;;;17.03;12.03;;;;;;;1.10;78.46;96765.59;5034309;28;20179;-65
2021/03/09 06:58:28;;;;;;;17.87;12.30;;;;;;;1.29;77.96;96772.91;5031826;28;20292;-66
2021/03/09 07:01:11;;;;;;;19.50;12.90;;;;;;;1.41;77.31;96776.72;5018216;28;20220;-67
2021/03/09 07:03:37;;;;;;;17.50;12.93;;;;;;;1.45;76.64;96780.56;5036267;28;20199;-69
2021/03/09 07:06:04;;;;;;;17.17;13.07;;;;;;;1.49;76.83;96783.63;5018901;28;20630;-68
2021/03/09 07:08:30;;;;;;;19.13;13.13;;;;;;;1.48;76.88;96785.41;5040246;28;20205;-67
2021/03/09 07:10:55;;;;;;;22.37;13.53;;;;;;;1.57;76.89;96784.38;5021031;28;20527;-68
2021/03/09 07:13:26;;;;;;;18.63;13.73;;;;;;;1.77;76.25;96789.13;5036722;28;20172;-69
2021/03/09 07:15:53;;;;;;;17.83;13.27;;;;;;;1.82;75.46;96786.81;5035693;28;20719;-68
2021/03/09 07:18:24;;;;;;;19.03;13.40;;;;;;;1.85;75.14;96786.47;5036168;28;20170;-71
2021/03/09 07:20:52;;;;;;;19.53;13.73;;;;;;;1.90;75.32;96787.56;5011934;28;20180;-69
2021/03/09 07:23:19;;;;;;;20.03;13.13;;;;;;;1.99;74.55;96791.72;5029409;28;20176;-69
2021/03/09 07:25:51;;;;;;;18.87;13.90;;;;;;;2.10;74.68;96793.09;5035211;28;20178;-70
2021/03/09 07:28:18;;;;;;;18.47;13.17;;;;;;;2.09;74.72;96797.44;5023079;28;20667;-69
2021/03/09 07:30:46;;;;;;;17.33;13.13;;;;;;;2.15;74.01;96798.53;5037484;28;20330;-69
2021/03/09 07:33:12;;;;;;;16.87;13.03;;;;;;;2.21;73.83;96797.03;5039004;28;20612;-69
2021/03/09 07:35:37;;;;;;;18.03;13.10;;;;;;;2.28;73.90;96798.78;5035939;28;20182;-69
2021/03/09 07:38:05;;;;;;;17.67;13.37;;;;;;;2.45;73.47;96800.22;5038573;28;20195;-69
2021/03/09 07:40:33;;;;;;;16.50;13.10;;;;;;;2.53;72.87;96801.94;5019180;28;20221;-69
2021/03/09 07:42:59;;;;;;;19.17;13.30;;;;;;;2.54;72.75;96805.31;5036612;28;20203;-69
2021/03/09 07:45:29;;;;;;;19.87;13.43;;;;;;;2.56;72.56;96805.97;5033717;28;20675;-69
2021/03/09 07:47:58;;;;;;;19.00;12.70;;;;;;;2.66;72.02;96812.50;5029030;28;20182;-69
2021/03/09 07:50:29;;;;;;;16.37;12.80;;;;;;;2.98;71.37;96800.19;5028041;28;20211;-67
2021/03/09 07:52:58;;;;;;;16.67;12.93;;;;;;;3.01;70.81;96802.44;5043464;28;20177;-68
2021/03/09 07:55:23;;;;;;;17.33;12.73;;;;;;;3.19;69.86;96808.84;5023501;28;20224;-67
2021/03/09 07:58:23;;;;;;;17.00;13.60;;;;;;;3.44;70.84;96799.00;5026587;28;20246;-67
2021/03/09 08:01:06;;;;;;;18.20;13.50;;;;;;;3.67;69.28;96801.47;5017589;28;20610;-67
2021/03/09 08:03:40;;;;;;;15.97;13.07;;;;;;;3.58;68.89;96799.94;5037727;28;20214;-67
2021/03/09 08:06:08;;;;;;;19.93;14.27;;;;;;;3.60;68.97;96798.78;5033085;28;20170;-68
2021/03/09 08:08:45;;;;;;;17.87;12.83;;;;;;;3.58;68.97;96803.34;5040558;28;20225;-68
2021/03/09 08:11:13;;;;;;;15.77;12.77;;;;;;;3.46;68.82;96802.19;5031646;28;20261;-67
2021/03/09 08:13:40;;;;;;;17.20;13.30;;;;;;;3.60;68.91;96806.56;5032695;28;20170;-69
2021/03/09 08:16:29;;;;;;;17.47;13.23;;;;;;;3.52;68.74;96798.88;5029841;28;20509;-68
2021/03/09 08:18:57;;;;;;;17.07;13.43;;;;;;;3.55;69.07;96797.72;5004064;28;20214;-68
2021/03/09 08:21:47;;;;;;;17.87;13.40;;;;;;;3.56;68.39;96805.34;5027030;28;20166;-67
2021/03/09 08:24:13;;;;;;;16.87;13.33;;;;;;;3.62;69.25;96807.16;5024572;28;20197;-69
2021/03/09 08:26:39;;;;;;;16.07;13.17;;;;;;;3.75;68.52;96803.94;5042214;28;20178;-68
2021/03/09 08:29:27;;;;;;;15.83;13.10;;;;;;;3.90;67.91;96807.25;5010129;28;20202;-69
2021/03/09 08:32:29;;;;;;;17.93;13.87;;;;;;;4.18;66.31;96802.94;5027978;28;20192;-69
2021/03/09 08:35:13;;;;;;;17.50;13.13;;;;;;;4.00;68.24;96810.38;5041841;28;20182;-69
2021/03/09 08:37:41;;;;;;;15.33;13.03;;;;;;;4.16;66.91;96814.53;5024759;28;20678;-68
2021/03/09 08:40:08;;;;;;;16.70;13.87;;;;;;;4.23;67.11;96799.81;5024725;28;20209;-68
2021/03/09 08:43:02;;;;;;;19.27;14.30;;;;;;;4.28;65.96;96807.84;5026003;28;20180;-68
2021/03/09 08:45:38;;;;;;;18.20;13.20;;;;;;;4.44;65.33;96799.81;5026088;28;20190;-68
2021/03/09 08:48:08;;;;;;;16.93;13.43;;;;;;;4.46;65.26;96804.78;5027708;28;20192;-68
2021/03/09 08:50:45;;;;;;;16.93;13.73;;;;;;;4.63;65.01;96803.53;5019417;28;20215;-68
2021/03/09 08:53:26;;;;;;;15.57;13.60;;;;;;;4.79;64.62;96805.06;5028882;28;20173;-68
2021/03/09 08:56:05;;;;;;;15.33;13.23;;;;;;;4.91;63.74;96801.72;5018978;28;20215;-68
2021/03/09 08:58:40;;;;;;;18.97;13.50;;;;;;;4.96;63.32;96799.34;5020229;28;20238;-68
2021/03/09 09:01:06;;;;;;;15.20;13.13;;;;;;;5.11;63.15;96801.84;5028001;28;20258;-68
2021/03/09 09:03:50;;;;;;;14.93;12.87;;;;;;;5.21;63.05;96794.50;5012522;28;20609;-68
2021/03/09 09:06:16;;;;;;;16.30;12.57;;;;;;;5.21;62.97;96793.69;5015000;28;20237;-68
2021/03/09 09:08:42;;;;;;;17.13;13.63;;;;;;;5.23;63.39;96799.53;5035423;28;20667;-68
2021/03/09 09:11:07;;;;;;;21.77;14.27;;;;;;;5.47;63.05;96796.41;5018052;28;20202;-68
2021/03/09 09:13:37;;;;;;;20.73;14.37;;;;;;;5.64;62.19;96792.47;5040313;28;20179;-68
2021/03/09 09:16:16;;;;;;;19.33;13.27;;;;;;;5.81;61.73;96791.13;5025231;28;20174;-68
2021/03/09 09:18:42;;;;;;;16.33;13.57;;;;;;;5.74;61.37;96787.69;5013874;28;20207;-68
2021/03/09 09:21:07;;;;;;;16.13;13.50;;;;;;;5.80;61.21;96789.53;5041278;28;20249;-68
2021/03/09 09:23:36;;;;;;;15.20;13.57;;;;;;;5.97;60.52;96781.38;5032958;28;20266;-69
2021/03/09 09:26:02;;;;;;;17.07;13.60;;;;;;;6.10;60.05;96786.63;5028506;28;20256;-68
2021/03/09 09:28:31;;;;;;;16.70;14.17;;;;;;;6.00;60.73;96783.59;5036537;28;20201;-68
2021/03/09 09:30:59;;;;;;;16.67;14.87;;;;;;;6.06;59.86;96791.44;5014490;28;20198;-68
2021/03/09 09:33:28;;;;;;;16.53;13.10;;;;;;;6.00;59.81;96781.81;5015351;28;20241;-68
2021/03/09 09:35:54;;;;;;;19.83;12.97;;;;;;;6.06;59.86;96783.63;5028118;28;20198;-68
2021/03/09 09:38:20;;;;;;;16.03;13.67;;;;;;;5.95;60.24;96786.81;5020672;28;20198;-68
2021/03/09 09:40:48;;;;;;;16.60;13.47;;;;;;;6.09;60.61;96782.41;5016945;28;20168;-68
2021/03/09 09:43:16;;;;;;;16.53;13.73;;;;;;;6.23;60.15;96786.66;5027302;28;20166;-68
2021/03/09 09:45:48;;;;;;;14.30;12.80;;;;;;;6.25;60.02;96788.03;5021568;28;20849;-70
2021/03/09 09:48:18;;;;;;;17.80;13.83;;;;;;;6.40;59.14;96789.66;5024658;28;20241;-68
2021/03/09 09:50:45;;;;;;;15.40;12.87;;;;;;;6.38;58.93;96794.25;5024211;28;20238;-70
2021/03/09 09:53:11;;;;;;;16.17;13.97;;;;;;;6.53;58.88;96785.22;5018541;28;20179;-68
2021/03/09 09:55:37;;;;;;;17.47;13.00;;;;;;;6.66;58.62;96789.66;5032333;28;20588;-68
2021/03/09 09:58:03;;;;;;;14.77;12.90;;;;;;;6.61;58.45;96792.06;5021004;28;20226;-68
2021/03/09 10:00:33;;;;;;;18.27;13.57;;;;;;;6.70;58.32;96783.03;5039871;28;20174;-68
2021/03/09 10:03:24;;;;;;;16.73;12.60;;;;;;;6.64;57.73;96792.44;5016582;28;20537;-69
2021/03/09 10:05:50;;;;;;;14.30;12.23;;;;;;;6.87;57.33;96791.22;5008479;28;20192;-69
2021/03/09 10:08:37;;;;;;;21.13;14.00;;;;;;;6.88;57.05;96791.03;5037168;28;20178;-69
2021/03/09 10:11:03;;;;;;;13.40;12.00;;;;;;;7.09;56.79;96782.16;5022880;28;20673;-69
2021/03/09 10:13:29;;;;;;;17.30;12.10;;;;;;;6.98;56.50;96788.78;5048312;28;21011;-69
2021/03/09 10:15:55;;;;;;;15.13;12.07;;;;;;;6.64;58.39;96787.22;5025535;28;20170;-69
2021/03/09 10:18:50;;;;;;;14.93;11.93;;;;;;;7.13;57.38;96785.16;5027036;28;20598;-69
2021/03/09 10:21:15;;;;;;;22.90;11.90;;;;;;;7.29;56.46;96789.94;5022722;28;20669;-69
2021/03/09 10:24:02;;;;;;;14.10;11.37;;;;;;;7.22;55.33;96789.94;5045512;28;20177;-68
2021/03/09 10:26:35;;;;;;;12.93;10.73;;;;;;;7.44;54.53;96780.84;5017884;28;20208;-68
2021/03/09 10:29:06;;;;;;;15.07;11.30;;;;;;;7.26;54.96;96793.75;5053343;28;20237;-68
2021/03/09 10:31:43;;;;;;;12.03;10.73;;;;;;;7.21;54.67;96787.53;5030930;28;20530;-68
2021/03/09 10:34:10;;;;;;;12.27;10.70;;;;;;;6.93;55.25;96790.41;5041605;28;20172;-68
2021/03/09 10:36:52;;;;;;;11.67;10.47;;;;;;;7.30;54.65;96788.94;5024089;28;20170;-68
2021/03/09 10:39:19;;;;;;;13.63;10.97;;;;;;;7.53;54.31;96784.00;5039228;28;20715;-69
2021/03/09 10:41:45;;;;;;;14.00;10.70;;;;;;;7.84;53.65;96778.84;5018514;28;20266;-69
2021/03/09 10:44:37;;;;;;;13.90;11.07;;;;;;;7.98;53.06;96776.16;5022072;28;20296;-69
2021/03/09 10:47:05;;;;;;;13.43;11.20;;;;;;;7.94;52.88;96770.56;5050064;28;20174;-69
2021/03/09 10:49:32;;;;;;;15.60;11.60;;;;;;;7.92;52.83;96781.22;5021543;28;20213;-69
2021/03/09 10:52:06;;;;;;;12.33;10.73;;;;;;;7.94;52.96;96773.19;5017935;28;20187;-68
2021/03/09 10:54:33;;;;;;;13.10;9.90;;;;;;;7.94;52.93;96768.75;5039842;28;20183;-69
2021/03/09 10:56:59;;;;;;;12.60;10.27;;;;;;;7.94;52.22;96773.19;5024592;28;20273;-69
2021/03/09 10:59:25;;;;;;;11.30;9.90;;;;;;;8.21;52.19;96769.38;5018413;28;20314;-69
2021/03/09 11:01:51;;;;;;;12.83;9.90;;;;;;;8.33;51.11;96772.94;5046428;28;20546;-69
2021/03/09 11:04:17;;;;;;;13.97;9.33;;;;;;;8.56;49.95;96761.91;5045290;28;20172;-69
2021/03/09 11:06:43;;;;;;;10.77;7.57;;;;;;;8.30;49.32;96773.34;5027266;28;20535;-69
2021/03/09 11:09:09;;;;;;;11.00;8.83;;;;;;;8.25;49.74;96774.97;5031117;28;20215;-69
2021/03/09 11:11:40;;;;;;;7.97;7.10;;;;;;;8.27;48.34;96772.94;5040987;28;20174;-70
2021/03/09 11:14:06;;;;;;;10.20;8.07;;;;;;;8.60;48.79;96767.50;5019973;28;20207;-69
2021/03/09 11:16:32;;;;;;;9.53;8.30;;;;;;;8.54;48.93;96769.16;5042418;28;20214;-68
2021/03/09 11:18:59;;;;;;;15.73;8.23;;;;;;;8.69;47.68;96767.00;5013669;28;20265;-68
2021/03/09 11:21:26;;;;;;;7.23;6.43;;;;;;;8.47;47.07;96776.22;5037092;28;20181;-69
2021/03/09 11:23:51;;;;;;;7.17;6.17;;;;;;;8.42;46.80;96768.25;5020352;28;20182;-68
2021/03/09 11:26:24;;;;;;;6.30;5.80;;;;;;;8.61;46.67;96769.91;5046142;28;20178;-68
2021/03/09 11:28:51;;;;;;;6.83;6.00;;;;;;;8.50;47.25;96767.19;5038039;28;20250;-69
2021/03/09 11:31:18;;;;;;;7.10;6.40;;;;;;;8.37;47.36;96764.66;5021612;28;20187;-68
2021/03/09 11:33:44;;;;;;;7.03;6.33;;;;;;;8.66;46.48;96766.66;5037155;28;20178;-69
2021/03/09 11:36:13;;;;;;;10.67;6.83;;;;;;;8.52;44.77;96765.97;5039530;28;20242;-69